Time;durP1;ratioP1;P1;durP2;ratioP2;P2;SDS_P1;SDS_P2;PMS_P1;PMS_P2;Temp;Humidity;BMP_temperature;BMP_pressure;BME280_temperature;BME280_humidity;BME280_pressure;Samples;Min_cycle;Max_cycle;Signal;HPM_P1;HPM_P2
2023/11/17 00:01:05;;;;;;;6.20;3.80;;;;;;;10.92;88.73;100553.73;105985;1260;61383;-87
2023/11/17 00:03:39;;;;;;;8.10;3.30;;;;;;;10.80;89.34;100555.10;105869;1259;61289;-88
2023/11/17 00:06:12;;;;;;;8.00;3.30;;;;;;;10.62;90.60;100558.48;105970;1260;74666;-88
2023/11/17 00:08:43;;;;;;;5.80;3.50;;;;;;;10.75;89.96;100558.61;105806;1260;68362;-88
2023/11/17 00:11:11;;;;;;;5.10;3.30;;;;;;;10.80;89.40;100563.23;105892;1259;72525;-89
2023/11/17 00:13:46;;;;;;;4.50;3.40;;;;;;;10.72;90.00;100560.59;105837;1259;61439;-87
2023/11/17 00:16:13;;;;;;;6.40;3.60;;;;;;;10.75;89.79;100566.70;106237;1259;61174;-87
2023/11/17 00:18:49;;;;;;;5.00;3.50;;;;;;;10.73;89.91;100564.23;105814;1262;74688;-88
2023/11/17 00:21:21;;;;;;;4.70;3.50;;;;;;;10.76;89.86;100564.73;105925;1258;68396;-88
2023/11/17 00:23:55;;;;;;;5.60;3.60;;;;;;;10.69;90.24;100566.22;105874;1260;72784;-87
2023/11/17 00:26:23;;;;;;;5.70;3.60;;;;;;;10.62;90.90;100569.03;105920;1259;61519;-88
2023/11/17 00:28:53;;;;;;;6.40;4.20;;;;;;;10.67;90.76;100572.13;106189;1260;61255;-87
2023/11/17 00:31:22;;;;;;;6.20;3.80;;;;;;;10.59;91.60;100571.39;105915;1262;75184;-88
2023/11/17 00:33:56;;;;;;;5.50;3.80;;;;;;;10.61;91.63;100576.79;105857;1264;67663;-88
2023/11/17 00:36:24;;;;;;;4.80;3.30;;;;;;;10.56;92.02;100577.02;105825;1267;71076;-89
2023/11/17 00:38:52;;;;;;;4.10;3.40;;;;;;;10.51;92.74;100581.55;105932;1260;61346;-87
2023/11/17 00:41:28;;;;;;;4.50;3.10;;;;;;;10.51;93.10;100581.67;105786;1261;59187;-89
2023/11/17 00:43:57;;;;;;;5.00;3.20;;;;;;;10.47;93.40;100584.46;105916;1258;73497;-89
2023/11/17 00:46:26;;;;;;;5.10;3.40;;;;;;;10.46;93.55;100584.03;105901;1259;68368;-87
2023/11/17 00:49:03;;;;;;;3.90;2.90;;;;;;;10.48;93.56;100587.09;106185;1259;72518;-89
2023/11/17 00:51:37;;;;;;;3.90;3.30;;;;;;;10.50;93.44;100585.66;105767;1259;61364;-87
2023/11/17 00:54:06;;;;;;;4.20;3.20;;;;;;;10.28;95.30;100593.15;105620;1259;61346;-87
2023/11/17 00:56:37;;;;;;;6.00;2.90;;;;;;;10.14;96.78;100593.85;105844;1265;74689;-87
2023/11/17 00:59:11;;;;;;;4.00;3.30;;;;;;;10.16;97.13;100596.96;105854;1259;67251;-87
2023/11/17 01:01:45;;;;;;;6.50;3.20;;;;;;;10.14;97.42;100597.77;105844;1259;71419;-87
2023/11/17 01:04:15;;;;;;;3.30;2.80;;;;;;;10.11;97.60;100603.67;105833;1259;61397;-89
2023/11/17 01:06:43;;;;;;;4.20;2.80;;;;;;;10.59;94.56;100599.31;105841;1259;61902;-91
2023/11/17 01:09:17;;;;;;;4.20;3.40;;;;;;;10.62;93.72;100601.21;105929;1264;74682;-88
2023/11/17 01:11:52;;;;;;;4.20;3.00;;;;;;;10.48;95.06;100601.23;105875;1260;68124;-87
2023/11/17 01:14:20;;;;;;;3.50;2.90;;;;;;;10.59;94.19;100599.90;105925;1260;72689;-88
2023/11/17 01:16:48;;;;;;;5.80;3.00;;;;;;;10.52;94.75;100601.23;105901;1260;61385;-89
2023/11/17 01:19:16;;;;;;;4.10;3.20;;;;;;;10.50;94.94;100601.61;106247;1259;61190;-87
2023/11/17 01:21:44;;;;;;;7.40;3.50;;;;;;;10.43;95.75;100606.92;105972;1262;74690;-87
2023/11/17 01:24:18;;;;;;;5.10;3.60;;;;;;;10.42;95.75;100608.02;105766;1259;69286;-88
2023/11/17 01:26:52;;;;;;;4.90;3.60;;;;;;;10.53;94.83;100610.36;105882;1266;73795;-87
2023/11/17 01:29:19;;;;;;;4.80;3.30;;;;;;;10.58;94.44;100610.35;105816;1260;61341;-87
2023/11/17 01:31:53;;;;;;;6.00;3.60;;;;;;;10.57;94.51;100610.73;106261;1259;61224;-87
2023/11/17 01:34:27;;;;;;;5.10;3.10;;;;;;;10.51;94.51;100607.08;105968;1265;74713;-87
2023/11/17 01:36:56;;;;;;;6.30;4.00;;;;;;;10.27;96.42;100611.11;105709;1262;67074;-88
2023/11/17 01:39:24;;;;;;;6.50;3.60;;;;;;;10.17;97.39;100611.10;105959;1261;71074;-91
2023/11/17 01:41:52;;;;;;;4.70;3.70;;;;;;;10.30;96.24;100607.80;106021;1259;61246;-90
2023/11/17 01:44:26;;;;;;;4.30;3.30;;;;;;;10.35;95.75;100615.40;105864;1259;61322;-89
2023/11/17 05:48:19;;;;;;;9.50;5.30;;;;;;;11.70;79.61;100660.48;105963;1260;67274;-89
2023/11/17 05:50:54;;;;;;;10.80;5.10;;;;;;;11.63;80.04;100663.08;105743;1259;72417;-90
2023/11/17 05:53:22;;;;;;;9.50;5.00;;;;;;;11.58;80.28;100663.11;105963;1260;61829;-88
2023/11/17 05:55:57;;;;;;;10.10;5.40;;;;;;;11.62;79.96;100667.19;105964;1265;61462;-90
2023/11/17 05:58:30;;;;;;;11.90;5.20;;;;;;;11.65;80.27;100673.04;105979;1264;74649;-90
2023/11/17 06:01:03;;;;;;;10.80;5.30;;;;;;;11.71;79.72;100677.34;105808;1264;67266;-91
2023/11/17 06:03:32;;;;;;;10.60;5.60;;;;;;;11.66;80.00;100681.20;105900;1260;72671;-89
2023/11/17 06:06:06;;;;;;;8.20;5.00;;;;;;;11.70;79.94;100689.39;105984;1260;61353;-90
2023/11/17 06:08:39;;;;;;;9.10;6.20;;;;;;;11.74;79.32;100699.71;105704;1258;61365;-88
2023/11/17 06:11:08;;;;;;;12.10;6.70;;;;;;;11.81;78.88;100703.09;105904;1268;74573;-88
2023/11/17 06:13:43;;;;;;;8.60;5.20;;;;;;;11.87;78.45;100707.88;106064;1260;68372;-88
2023/11/17 06:16:15;;;;;;;8.90;5.20;;;;;;;11.83;78.45;100708.77;105900;1260;71177;-87
2023/11/17 06:18:54;;;;;;;8.50;5.10;;;;;;;11.76;79.07;100710.87;105706;1262;61375;-88
2023/11/17 06:21:29;;;;;;;9.20;5.20;;;;;;;11.80;78.79;100714.52;106440;1259;61331;-89
2023/11/17 06:23:57;;;;;;;8.10;4.40;;;;;;;11.72;79.09;100713.41;106032;1262;73864;-90
2023/11/17 06:26:27;;;;;;;7.60;4.70;;;;;;;11.75;78.96;100720.95;105846;1260;67522;-90
2023/11/17 06:29:02;;;;;;;10.50;5.20;;;;;;;11.74;78.97;100721.34;106083;1260;71478;-89
2023/11/17 06:31:29;;;;;;;10.00;4.70;;;;;;;11.81;78.71;100719.61;106049;1260;61395;-88
2023/11/17 06:33:58;;;;;;;9.90;5.40;;;;;;;11.73;79.30;100727.59;106219;1264;60063;-88
2023/11/17 06:36:26;;;;;;;12.60;5.40;;;;;;;11.73;79.86;100731.80;105913;1264;74662;-89
2023/11/17 06:38:54;;;;;;;14.10;6.60;;;;;;;11.69;80.12;100737.79;105827;1260;68928;-88
2023/11/17 06:41:23;;;;;;;8.50;5.00;;;;;;;11.55;81.57;100739.25;105708;1265;72744;-88
2023/11/17 06:43:51;;;;;;;18.10;9.00;;;;;;;11.58;81.48;100739.73;105958;1260;61224;-88
2023/11/17 06:46:24;;;;;;;10.90;5.90;;;;;;;11.76;80.31;100744.10;105884;1260;61218;-88
2023/11/17 06:48:52;;;;;;;11.30;5.60;;;;;;;11.72;80.46;100742.52;105835;1259;73698;-90
2023/11/17 06:51:26;;;;;;;10.00;5.10;;;;;;;11.67;80.47;100744.20;105808;1265;68819;-91
2023/11/17 06:53:58;;;;;;;9.60;5.20;;;;;;;11.59;80.87;100743.13;105710;1264;71526;-86
2023/11/17 06:56:26;;;;;;;10.00;5.00;;;;;;;11.56;81.43;100747.52;106140;1260;61699;-88
2023/11/17 06:58:59;;;;;;;9.20;4.90;;;;;;;11.59;81.21;100750.03;106155;1260;60380;-90
2023/11/17 07:01:32;;;;;;;11.10;4.90;;;;;;;11.66;80.79;100758.65;106142;1260;74760;-89
2023/11/17 07:04:07;;;;;;;9.60;5.20;;;;;;;11.65;81.06;100759.80;106761;1259;67526;-88
2023/11/17 07:06:36;;;;;;;8.50;4.80;;;;;;;11.76;80.44;100764.09;105877;1263;71144;-88
2023/11/17 07:09:16;;;;;;;12.20;6.40;;;;;;;11.72;80.71;100765.33;105847;1263;61275;-86
2023/11/17 07:11:50;;;;;;;15.50;6.70;;;;;;;11.59;82.14;100763.98;105751;1259;61362;-87
2023/11/17 07:14:25;;;;;;;11.40;5.60;;;;;;;11.58;82.55;100763.16;105614;1260;73483;-88
2023/11/17 07:16:52;;;;;;;11.80;6.30;;;;;;;11.56;83.31;100767.67;105833;1265;67467;-88
2023/11/17 07:19:20;;;;;;;10.40;5.40;;;;;;;11.61;83.27;100771.38;105846;1264;72060;-90
2023/11/17 07:21:55;;;;;;;11.30;6.00;;;;;;;11.54;83.86;100775.39;105754;1259;61382;-88
2023/11/17 07:24:29;;;;;;;12.10;7.00;;;;;;;11.52;83.96;100778.40;105996;1259;61216;-89
2023/11/17 07:26:57;;;;;;;12.20;7.80;;;;;;;11.46;84.11;100782.30;105963;1264;74741;-88
2023/11/17 07:29:34;;;;;;;16.30;9.50;;;;;;;11.36;84.90;100783.58;105838;1265;68485;-90
2023/11/17 07:32:14;;;;;;;16.30;9.10;;;;;;;11.46;83.73;100785.09;105906;1263;71404;-86
2023/11/17 07:34:42;;;;;;;14.10;8.90;;;;;;;11.37;83.61;100786.26;105759;1265;61327;-88
2023/11/17 07:37:24;;;;;;;12.20;7.50;;;;;;;11.33;84.20;100784.84;105814;1264;61262;-88
2023/11/17 07:40:06;;;;;;;15.30;8.30;;;;;;;11.26;84.85;100790.70;105908;1264;73394;-85
2023/11/17 07:42:48;;;;;;;13.20;8.10;;;;;;;11.20;85.46;100795.48;106016;1263;68428;-87
2023/11/17 07:45:17;;;;;;;13.70;8.40;;;;;;;11.17;85.60;100796.14;105799;1265;71394;-88
2023/11/17 07:47:59;;;;;;;14.10;8.20;;;;;;;11.27;85.37;100793.39;105708;1260;61289;-88
2023/11/17 07:50:38;;;;;;;11.20;7.40;;;;;;;11.67;82.41;100786.30;105953;1263;61308;-89
2023/11/17 07:53:18;;;;;;;15.40;8.50;;;;;;;11.61;82.35;100782.82;106076;1259;73484;-86
2023/11/17 07:55:46;;;;;;;14.20;7.10;;;;;;;11.90;80.80;100784.20;105891;1265;67969;-86
2023/11/17 07:58:26;;;;;;;13.30;7.60;;;;;;;12.09;79.14;100776.52;105910;1263;71433;-89
2023/11/17 08:01:09;;;;;;;15.40;8.50;;;;;;;11.80;80.56;100778.27;105894;1265;61369;-87
2023/11/17 08:03:47;;;;;;;15.30;8.00;;;;;;;11.63;82.67;100777.73;105927;1264;61247;-87
2023/11/17 08:06:15;;;;;;;15.00;8.90;;;;;;;11.98;80.03;100779.65;105833;1261;76473;-89
2023/11/17 08:08:48;;;;;;;13.10;8.00;;;;;;;11.89;80.68;100785.75;106013;1264;67277;-89
2023/11/17 08:11:25;;;;;;;14.00;8.30;;;;;;;11.92;80.33;100784.65;105868;1264;71005;-87
2023/11/17 08:13:59;;;;;;;17.70;8.90;;;;;;;11.82;81.09;100790.73;105990;1260;61402;-88
2023/11/17 08:16:33;;;;;;;15.50;8.60;;;;;;;11.83;81.26;100796.21;105968;1260;61369;-87
2023/11/17 08:19:11;;;;;;;16.60;9.50;;;;;;;11.85;81.42;100808.05;105887;1260;73394;-88
2023/11/17 08:22:04;;;;;;;30.30;14.80;;;;;;;11.92;81.21;100810.11;105813;1261;68414;-90
2023/11/17 08:24:44;;;;;;;18.60;10.20;;;;;;;11.90;81.47;100814.79;105989;1260;72453;-87
2023/11/17 08:27:14;;;;;;;25.30;13.50;;;;;;;12.07;80.79;100816.84;106042;1263;61219;-87
2023/11/17 08:29:48;;;;;;;18.00;9.60;;;;;;;11.97;80.99;100821.16;105717;1265;61311;-86
2023/11/17 08:32:17;;;;;;;16.60;8.60;;;;;;;11.98;80.61;100821.66;105809;1266;76838;-87
2023/11/17 08:34:50;;;;;;;18.10;9.50;;;;;;;12.01;80.51;100828.22;105740;1260;69121;-88
2023/11/17 08:37:18;;;;;;;16.30;9.20;;;;;;;11.88;81.45;100830.21;105682;1263;71686;-87
2023/11/17 08:39:47;;;;;;;18.00;10.40;;;;;;;11.81;82.14;100835.53;105957;1264;61582;-88
2023/11/17 08:42:22;;;;;;;18.00;11.40;;;;;;;11.91;82.19;100837.94;105997;1260;61253;-88
2023/11/17 08:44:56;;;;;;;18.20;10.30;;;;;;;11.83;82.71;100841.61;106025;1260;74496;-86
2023/11/17 08:47:25;;;;;;;18.50;11.50;;;;;;;11.78;83.38;100841.51;105856;1259;68551;-87
2023/11/17 08:49:58;;;;;;;19.70;11.30;;;;;;;11.84;82.93;100833.95;105816;1266;73173;-87
2023/11/17 08:52:37;;;;;;;20.50;12.00;;;;;;;11.95;82.10;100829.60;105966;1259;61242;-89
2023/11/17 08:55:15;;;;;;;17.80;10.60;;;;;;;11.87;82.46;100825.35;106021;1260;61200;-89
2023/11/17 08:57:46;;;;;;;24.20;12.20;;;;;;;11.82;83.48;100821.90;106053;1260;76687;-90
2023/11/17 09:00:26;;;;;;;21.50;11.10;;;;;;;11.94;82.73;100827.13;105743;1260;233027;-89
2023/11/17 09:03:00;;;;;;;19.40;10.50;;;;;;;11.89;83.34;100828.45;105955;1259;72700;-89
2023/11/17 09:05:40;;;;;;;18.40;11.30;;;;;;;12.16;81.80;100832.98;105899;1265;61458;-88
2023/11/17 09:08:07;;;;;;;17.10;10.80;;;;;;;12.55;78.58;100829.05;105986;1265;61266;-88
2023/11/17 09:10:42;;;;;;;18.90;11.60;;;;;;;12.10;81.17;100835.58;106126;1264;74622;-88
2023/11/17 09:13:16;;;;;;;19.80;11.50;;;;;;;11.99;82.72;100833.98;105934;1264;68405;-88
2023/11/17 09:15:52;;;;;;;19.90;11.90;;;;;;;11.89;83.08;100831.33;105885;1261;72849;-88
2023/11/17 09:18:31;;;;;;;20.70;11.80;;;;;;;11.81;83.28;100829.46;105942;1260;61416;-89
2023/11/17 09:21:05;;;;;;;19.90;11.40;;;;;;;11.75;83.68;100833.86;105810;1259;62388;-88
2023/11/17 09:23:39;;;;;;;19.90;10.90;;;;;;;11.67;83.94;100838.05;106011;1265;74697;-87
2023/11/17 09:26:13;;;;;;;17.80;10.00;;;;;;;11.64;84.23;100843.08;105910;1265;68412;-88
2023/11/17 09:28:50;;;;;;;19.90;9.90;;;;;;;11.61;84.39;100844.45;105854;1263;75053;-88
2023/11/17 09:31:27;;;;;;;19.10;10.60;;;;;;;11.49;85.05;100845.18;105832;1267;61397;-88
2023/11/17 09:34:00;;;;;;;18.90;10.70;;;;;;;11.56;84.20;100838.11;105863;1261;61455;-88
2023/11/17 09:36:32;;;;;;;21.00;10.00;;;;;;;11.59;83.68;100835.86;106019;1265;73854;-90
2023/11/17 09:39:04;;;;;;;;;;;;;;;11.67;83.30;100834.86;105977;1265;67204;-89
2023/11/17 09:41:38;;;;;;;18.00;9.30;;;;;;;11.64;83.68;100830.59;105880;1263;72723;-88
2023/11/17 09:44:10;;;;;;;19.30;10.40;;;;;;;11.61;84.06;100829.35;105650;1263;61202;-88
2023/11/17 09:47:01;;;;;;;16.50;9.80;;;;;;;11.92;81.92;100820.95;105658;1261;61378;-89
2023/11/17 09:49:42;;;;;;;17.30;10.00;;;;;;;11.76;82.74;100807.19;105847;1265;77056;-89
2023/11/17 09:52:22;;;;;;;20.60;10.50;;;;;;;11.59;84.44;100798.19;106194;1265;67531;-89
2023/11/17 09:54:56;;;;;;;18.50;10.20;;;;;;;11.71;84.02;100792.75;106383;1264;75006;-88
2023/11/17 09:57:30;;;;;;;21.20;11.50;;;;;;;11.92;82.25;100790.77;105893;1259;61229;-90
2023/11/17 10:00:20;;;;;;;22.90;11.50;;;;;;;11.79;83.83;100790.88;105926;1266;61179;-90
2023/11/17 10:03:05;;;;;;;18.00;10.30;;;;;;;11.90;83.71;100789.20;105739;1263;74736;-88
2023/11/17 10:05:47;;;;;;;21.90;12.10;;;;;;;12.15;81.97;100787.56;106049;1265;70591;-89
2023/11/17 10:08:24;;;;;;;21.00;11.60;;;;;;;12.09;82.68;100793.34;105989;1261;76857;-88
2023/11/17 10:11:04;;;;;;;19.50;10.10;;;;;;;12.63;79.38;100792.64;106022;1263;61594;-89
2023/11/17 10:13:47;;;;;;;20.60;11.00;;;;;;;12.52;78.49;100790.09;105884;1266;61151;-88
2023/11/17 10:16:27;;;;;;;20.00;11.40;;;;;;;12.06;81.87;100793.30;105917;1259;73455;-89
2023/11/17 10:18:55;;;;;;;21.20;11.60;;;;;;;11.98;82.77;100791.09;105724;1266;69945;-87
2023/11/17 10:21:37;;;;;;;23.80;12.90;;;;;;;12.16;81.88;100789.59;105869;1263;72668;-89
2023/11/17 10:24:16;;;;;;;27.20;13.40;;;;;;;12.21;80.91;100793.39;105817;1259;61282;-88
2023/11/17 10:26:56;;;;;;;23.50;12.20;;;;;;;12.33;79.49;100800.40;105876;1263;61901;-88
2023/11/17 10:29:25;;;;;;;23.20;12.80;;;;;;;12.28;79.58;100799.05;105920;1266;75157;-88
2023/11/17 10:32:05;;;;;;;20.00;11.30;;;;;;;12.29;79.47;100796.36;105906;1268;67423;-88
2023/11/17 10:35:24;;;;;;;20.80;12.60;;;;;;;12.43;78.76;100796.55;105922;1264;73038;-88
2023/11/17 10:38:05;;;;;;;20.00;11.70;;;;;;;12.29;80.32;100790.55;106110;1263;61406;-87
2023/11/17 10:40:45;;;;;;;21.60;12.50;;;;;;;12.47;79.41;100792.98;105983;1261;61260;-87
2023/11/17 10:43:14;;;;;;;22.20;12.50;;;;;;;12.74;76.91;100793.44;105959;1260;73215;-88
2023/11/17 10:45:56;;;;;;;23.60;12.20;;;;;;;12.63;77.72;100790.13;105939;1266;68437;-88
2023/11/17 10:48:54;;;;;;;25.30;13.40;;;;;;;12.72;76.86;100791.33;103088;1292;600431;-83
2023/11/17 10:51:34;;;;;;;23.20;11.90;;;;;;;12.44;79.14;100794.09;105263;1275;60083;-82
2023/11/17 10:54:12;;;;;;;22.80;11.40;;;;;;;12.52;78.92;100792.33;105137;1269;61901;-82
2023/11/17 10:56:47;;;;;;;24.60;12.30;;;;;;;12.67;78.00;100793.71;105134;1269;71912;-82
2023/11/17 10:59:27;;;;;;;19.80;11.10;;;;;;;12.73;77.86;100791.81;105079;1269;68372;-82
2023/11/17 11:02:09;;;;;;;21.30;11.20;;;;;;;12.79;77.32;100788.70;105036;1266;233836;-82
2023/11/17 11:04:37;;;;;;;22.60;11.30;;;;;;;12.87;77.03;100781.45;105325;1265;62864;-82
2023/11/17 11:07:17;;;;;;;20.10;9.60;;;;;;;13.04;77.18;100779.61;105108;1273;59824;-82
2023/11/17 11:09:57;;;;;;;18.00;9.60;;;;;;;13.19;75.18;100776.46;105434;1266;74182;-82
2023/11/17 11:12:38;;;;;;;17.90;10.70;;;;;;;13.29;74.44;100772.14;105450;1266;67955;-82
2023/11/17 11:15:15;;;;;;;20.20;9.50;;;;;;;13.43;73.23;100771.31;105259;1266;72816;-82
2023/11/17 11:18:06;;;;;;;20.80;9.90;;;;;;;13.48;73.15;100769.62;105210;1267;62073;-82
2023/11/17 11:20:46;;;;;;;18.90;10.90;;;;;;;13.40;74.92;100763.05;105490;1266;62360;-82
2023/11/17 11:23:27;;;;;;;22.60;10.20;;;;;;;13.57;74.43;100762.92;105860;1267;75184;-83
2023/11/17 11:26:05;;;;;;;17.60;10.10;;;;;;;13.62;73.47;100760.17;105613;1266;69014;-83
2023/11/17 11:28:42;;;;;;;18.50;10.60;;;;;;;13.59;73.84;100758.94;107602;1269;71645;-81
2023/11/17 11:31:22;;;;;;;20.50;9.50;;;;;;;13.66;73.66;100754.64;105382;1267;62542;-81
2023/11/17 11:34:05;;;;;;;18.30;8.90;;;;;;;13.61;72.34;100758.36;105287;1272;60237;-81
2023/11/17 11:36:42;;;;;;;15.90;8.60;;;;;;;13.58;72.22;100762.73;105707;1259;75237;-82
2023/11/17 11:39:16;;;;;;;18.10;8.40;;;;;;;13.75;70.82;100762.45;105791;1265;68965;-82
2023/11/17 11:41:57;;;;;;;16.10;9.20;;;;;;;13.66;70.65;100763.27;105834;1264;73077;-82
2023/11/17 11:44:38;;;;;;;19.90;10.10;;;;;;;13.64;70.48;100768.09;105678;1259;59692;-82
2023/11/17 11:47:13;;;;;;;17.60;9.50;;;;;;;14.12;66.87;100764.66;105807;1260;62019;-82
2023/11/17 11:49:49;;;;;;;17.60;8.30;;;;;;;13.81;67.57;100765.70;105590;1259;74579;-82
2023/11/17 11:52:31;;;;;;;18.00;8.30;;;;;;;13.35;69.47;100769.70;105986;1259;70293;-82
2023/11/17 11:55:14;;;;;;;14.80;8.20;;;;;;;13.28;69.91;100772.09;105818;1260;72656;-82
2023/11/17 11:58:01;;;;;;;16.20;9.00;;;;;;;13.28;69.73;100773.36;105763;1261;59741;-82
2023/11/17 12:00:29;;;;;;;23.20;11.20;;;;;;;13.25;69.82;100776.80;105963;1260;59670;-81
2023/11/17 12:03:10;;;;;;;17.10;9.90;;;;;;;13.14;70.47;100777.80;105797;1261;71765;-82
2023/11/17 12:05:50;;;;;;;17.90;9.90;;;;;;;13.36;68.70;100774.86;105859;1260;67198;-81
2023/11/17 12:08:32;;;;;;;19.10;9.00;;;;;;;13.32;69.31;100780.29;105891;1260;71099;-81
2023/11/17 12:11:11;;;;;;;19.90;10.80;;;;;;;13.69;66.84;100780.52;105973;1259;60017;-81
2023/11/17 12:13:47;;;;;;;18.10;8.80;;;;;;;13.64;66.92;100779.75;105835;1260;60534;-81
2023/11/17 12:16:36;;;;;;;16.90;8.00;;;;;;;13.23;69.39;100782.48;105786;1262;75732;-82
2023/11/17 12:19:16;;;;;;;19.10;9.80;;;;;;;13.23;69.35;100783.57;105858;1259;68334;-82
2023/11/17 12:21:50;;;;;;;21.20;11.40;;;;;;;13.14;69.79;100787.25;105797;1263;74606;-81
2023/11/17 12:24:24;;;;;;;17.30;10.10;;;;;;;13.16;69.25;100787.56;105782;1260;61676;-81
2023/11/17 12:27:07;;;;;;;19.00;9.30;;;;;;;13.09;69.50;100788.30;105818;1260;59552;-81
2023/11/17 12:29:42;;;;;;;19.10;11.00;;;;;;;13.60;66.91;100788.31;106042;1260;73803;-81
2023/11/17 12:32:17;;;;;;;20.20;10.90;;;;;;;13.42;67.12;100783.02;106148;1260;69127;-81
2023/11/17 12:34:52;;;;;;;17.20;9.90;;;;;;;13.09;69.79;100785.44;105867;1259;74062;-83
2023/11/17 12:37:35;;;;;;;18.60;9.60;;;;;;;12.88;71.28;100785.33;105761;1260;60097;-82
2023/11/17 12:40:19;;;;;;;21.90;11.70;;;;;;;12.43;74.46;100778.43;105908;1262;59571;-82
2023/11/17 12:42:53;;;;;;;21.40;11.80;;;;;;;12.58;74.50;100780.13;105867;1260;71892;-82
2023/11/17 12:45:28;;;;;;;18.00;10.10;;;;;;;12.67;73.49;100778.58;105866;1260;68114;-82
2023/11/17 12:48:08;;;;;;;15.60;9.60;;;;;;;12.61;74.20;100777.04;105949;1263;72727;-82
2023/11/17 12:50:48;;;;;;;18.50;9.00;;;;;;;12.71;73.13;100779.27;105772;1260;59732;-82
2023/11/17 12:53:23;;;;;;;19.60;9.20;;;;;;;12.92;71.60;100781.52;105790;1260;59545;-84
2023/11/17 12:55:58;;;;;;;17.50;9.30;;;;;;;12.80;72.38;100784.52;105910;1260;75177;-82
2023/11/17 12:58:38;;;;;;;16.00;9.10;;;;;;;12.88;72.37;100785.05;105812;1264;71086;-82
2023/11/17 13:01:19;;;;;;;21.60;10.70;;;;;;;13.04;70.96;100782.89;105861;1260;75373;-82
2023/11/17 13:03:58;;;;;;;16.20;9.20;;;;;;;13.02;71.01;100786.42;105746;1260;61958;-82
2023/11/17 13:06:33;;;;;;;19.30;10.00;;;;;;;12.97;70.51;100793.59;106005;1260;62187;-82
2023/11/17 13:09:17;;;;;;;15.70;8.90;;;;;;;12.88;71.12;100798.72;106098;1254;73514;-82
2023/11/17 13:12:01;;;;;;;17.90;9.10;;;;;;;12.82;71.06;100798.48;106025;1256;68387;-82
2023/11/17 13:15:13;;;;;;;17.80;9.80;;;;;;;12.75;71.79;100793.06;106014;1256;72791;-82
2023/11/17 13:17:47;;;;;;;19.40;9.40;;;;;;;12.78;71.95;100786.16;106146;1257;61001;-82
2023/11/17 13:20:23;;;;;;;18.80;9.40;;;;;;;13.35;68.46;100785.77;106087;1256;59633;-82
2023/11/17 13:23:04;;;;;;;17.30;10.00;;;;;;;13.15;68.93;100784.90;106162;1254;71617;-82
2023/11/17 13:26:07;;;;;;;18.10;9.80;;;;;;;12.73;71.52;100787.38;106143;1257;68004;-81
2023/11/17 13:28:42;;;;;;;16.30;8.50;;;;;;;12.67;72.01;100794.48;106184;1257;72728;-81
2023/11/17 13:31:23;;;;;;;17.20;9.30;;;;;;;12.72;71.50;100793.40;106183;1260;60490;-81
2023/11/17 13:34:05;;;;;;;15.90;9.10;;;;;;;12.50;72.66;100799.10;106176;1256;59513;-81
2023/11/17 13:36:45;;;;;;;17.10;8.60;;;;;;;12.32;74.49;100793.39;106025;1256;73047;-80
2023/11/17 13:39:21;;;;;;;20.20;10.90;;;;;;;12.36;74.85;100794.74;106051;1256;70668;-81
2023/11/17 13:41:57;;;;;;;19.80;10.40;;;;;;;12.30;75.56;100796.63;106066;1256;73989;-81
2023/11/17 13:44:40;;;;;;;20.00;10.40;;;;;;;12.20;75.63;100800.24;105959;1256;60096;-81
2023/11/17 13:47:20;;;;;;;20.70;10.60;;;;;;;12.29;75.12;100805.90;106093;1256;62599;-81
2023/11/17 13:50:07;;;;;;;21.10;10.40;;;;;;;12.39;74.13;100807.82;105935;1256;72902;-81
2023/11/17 13:52:36;;;;;;;20.60;11.20;;;;;;;12.31;75.09;100810.39;106029;1260;68756;-81
2023/11/17 13:55:16;;;;;;;23.50;12.00;;;;;;;12.36;75.30;100810.68;105942;1259;73584;-81
2023/11/17 13:57:56;;;;;;;22.20;12.10;;;;;;;12.25;75.12;100811.02;105925;1256;62538;-81
2023/11/17 14:00:42;;;;;;;22.20;12.60;;;;;;;12.02;76.14;100808.27;106003;1257;60038;-81
2023/11/17 14:03:20;;;;;;;24.00;13.00;;;;;;;11.63;79.25;100806.62;106045;1257;71192;-81
2023/11/17 14:05:53;;;;;;;26.30;12.80;;;;;;;11.58;80.09;100802.75;105974;1256;67627;-81
2023/11/17 14:08:34;;;;;;;24.50;13.10;;;;;;;11.72;79.25;100803.42;105912;1262;73385;-82
2023/11/17 14:11:14;;;;;;;25.10;13.50;;;;;;;11.91;77.52;100800.59;105897;1259;62360;-81
2023/11/17 14:13:52;;;;;;;23.60;14.30;;;;;;;11.84;77.96;100797.59;105911;1256;61452;-81
2023/11/17 14:16:31;;;;;;;22.90;12.30;;;;;;;11.73;78.72;100801.07;105894;1256;71742;-82
2023/11/17 14:19:11;;;;;;;27.20;13.60;;;;;;;11.74;79.24;100803.85;106039;1256;71500;-81
2023/11/17 14:21:51;;;;;;;25.60;13.80;;;;;;;11.69;79.55;100802.99;105965;1256;73607;-81
2023/11/17 14:24:20;;;;;;;26.00;13.50;;;;;;;11.57;80.68;100813.41;105999;1256;62202;-81
2023/11/17 14:27:00;;;;;;;24.50;13.30;;;;;;;11.63;80.32;100817.52;105976;1262;61225;-82
2023/11/17 14:29:42;;;;;;;25.30;13.80;;;;;;;11.80;79.52;100814.79;106003;1259;75117;-81
2023/11/17 14:32:23;;;;;;;26.50;13.70;;;;;;;11.95;78.90;100819.23;106033;1261;69930;-80
2023/11/17 14:34:51;;;;;;;25.10;13.00;;;;;;;12.22;76.56;100816.73;106139;1256;74817;-81
2023/11/17 14:37:31;;;;;;;23.30;12.40;;;;;;;12.01;77.28;100818.50;106293;1256;61460;-81
2023/11/17 14:40:17;;;;;;;25.60;12.00;;;;;;;11.65;80.85;100816.24;105989;1257;61977;-81
2023/11/17 14:42:58;;;;;;;24.50;12.30;;;;;;;11.91;79.06;100815.71;105992;1256;73019;-81
2023/11/17 14:45:26;;;;;;;27.60;12.70;;;;;;;11.83;79.25;100814.28;106036;1256;69881;-81
2023/11/17 14:48:07;;;;;;;25.50;13.00;;;;;;;11.68;80.57;100813.23;106120;1256;71465;-81
2023/11/17 14:50:47;;;;;;;22.40;12.50;;;;;;;12.06;78.09;100808.54;105873;1262;60159;-81
2023/11/17 14:53:28;;;;;;;25.90;13.30;;;;;;;12.18;76.04;100808.36;105927;1256;60973;-81
2023/11/17 14:55:56;;;;;;;23.80;12.70;;;;;;;11.43;81.26;100812.30;105962;1256;75438;-83
2023/11/17 14:58:36;;;;;;;23.20;12.20;;;;;;;11.41;81.83;100810.39;106120;1256;69378;-82
2023/11/17 15:01:17;;;;;;;25.70;12.40;;;;;;;11.59;80.81;100813.85;105901;1256;74991;-81
2023/11/17 15:03:58;;;;;;;23.80;12.30;;;;;;;11.74;79.45;100812.00;106135;1256;59743;-82
2023/11/17 15:06:26;;;;;;;22.00;12.20;;;;;;;11.70;79.60;100814.33;106116;1258;59625;-81
2023/11/17 15:09:08;;;;;;;23.20;12.20;;;;;;;11.69;79.87;100815.04;105977;1256;73060;-81
2023/11/17 15:11:53;;;;;;;21.80;11.80;;;;;;;11.97;78.24;100815.52;106147;1255;68428;-81
2023/11/17 15:14:33;;;;;;;24.10;12.60;;;;;;;12.05;77.57;100816.16;106029;1256;74868;-81
2023/11/17 15:17:03;;;;;;;25.10;12.10;;;;;;;12.23;76.10;100818.87;106032;1256;61921;-81
2023/11/17 15:19:44;;;;;;;23.80;12.70;;;;;;;12.38;74.74;100816.38;106023;1256;60515;-81
2023/11/17 15:22:24;;;;;;;22.50;11.80;;;;;;;12.41;74.02;100817.02;106269;1256;75975;-81
2023/11/17 15:25:05;;;;;;;21.10;11.90;;;;;;;12.49;73.45;100818.13;106093;1256;71096;-81
2023/11/17 15:27:46;;;;;;;25.10;12.40;;;;;;;12.16;75.58;100819.72;106109;1257;73064;-81
2023/11/17 15:30:26;;;;;;;22.50;10.90;;;;;;;12.03;76.30;100823.05;106365;1256;60521;-81
2023/11/17 15:33:08;;;;;;;30.50;15.90;;;;;;;11.80;77.97;100822.07;106095;1261;60439;-81
2023/11/17 15:35:48;;;;;;;66.70;34.20;;;;;;;11.91;77.74;100822.83;105974;1257;75432;-81
2023/11/17 15:38:28;;;;;;;45.80;26.70;;;;;;;11.92;77.61;100823.36;106085;1257;68761;-81
2023/11/17 15:41:08;;;;;;;28.70;16.10;;;;;;;11.78;78.58;100830.13;106122;1255;72491;-82
2023/11/17 15:43:48;;;;;;;27.90;15.00;;;;;;;11.71;79.28;100838.34;106141;1256;60521;-81
2023/11/17 15:46:22;;;;;;;23.60;12.80;;;;;;;11.75;79.34;100839.60;106122;1257;61472;-81
2023/11/17 15:49:03;;;;;;;29.20;17.50;;;;;;;11.78;79.07;100841.56;105982;1256;75145;-81